Search for airport 
image banner adimage banner adimage banner ad
image banner ad

0O4 - Corning Muni

Located in Corning, United States

ICAO - 0O4, IATA -

Data provided by Airmate  

General information

Coordinates: N39°56'46" W122°10'16"
Elevation is 296 feet MSL.
Magnetic variation is 17° East
View others Airports in California

Operational data

Special qualification required
Current time UTC:
Current local time:
Weather at : KRBL - Red Bluff Muni ( 24 km )
METAR: KRBL 211254Z AUTO 00000KT 10SM CLR 21/08 A2982 RMK AO2 SLP092 T02110078
TAF: KRBL 211120Z 2112/2212 16008KT P6SM SCT250 FM212000 16016G24KT P6SM SCT250 FM220500 16008KT P6SM SKC
View NOTAMs / SUP AIP / TFR affecting this airport [VIEW]
Communications frequencies: [VIEW]

Runways:

RWY identifierQFULength (ft)Width (ft)SurfaceLDA (ft)
17180°269960ASPH
35360°269960ASPH

Airport contact information

Address: Corning United States

Satellite view of 0O4